Time;durP1;ratioP1;P1;durP2;ratioP2;P2;SDS_P1;SDS_P2;PMS_P1;PMS_P2;Temp;Humidity;BMP_temperature;BMP_pressure;BME280_temperature;BME280_humidity;BME280_pressure;Samples;Min_cycle;Max_cycle;Signal;HPM_P1;HPM_P2
2023/09/03 00:01:23;;;;;;;7.57;6.78;;;;;;;16.49;81.72;99614.50;4976718;28;20044;-84
2023/09/03 00:03:48;;;;;;;9.80;8.80;;;;;;;16.35;82.60;99613.41;4975419;28;20117;-84
2023/09/03 00:06:14;;;;;;;9.93;7.13;;;;;;;16.34;83.71;99619.88;4971609;28;20034;-84
2023/09/03 00:08:39;;;;;;;11.93;7.60;;;;;;;16.11;84.35;99612.28;4972868;28;20034;-85
2023/09/03 00:11:04;;;;;;;11.02;7.82;;;;;;;16.47;82.90;99624.75;4970766;28;20483;-85
2023/09/03 00:13:30;;;;;;;11.15;8.32;;;;;;;16.45;82.36;99631.47;4957587;28;20033;-85
2023/09/03 00:15:55;;;;;;;15.05;13.27;;;;;;;15.86;86.35;99622.19;4990520;28;20029;-85
2023/09/03 00:18:21;;;;;;;22.98;15.20;;;;;;;15.60;88.55;99630.13;4958551;28;20397;-84
2023/09/03 00:21:01;;;;;;;12.38;10.93;;;;;;;16.02;86.07;99616.56;5005790;28;20754;-85
2023/09/03 00:23:27;;;;;;;19.10;15.70;;;;;;;15.74;86.54;99606.25;4984110;28;20057;-85
2023/09/03 00:25:53;;;;;;;13.00;11.57;;;;;;;15.61;87.70;99612.09;4973959;28;20103;-85
2023/09/03 00:28:18;;;;;;;13.05;9.27;;;;;;;15.46;88.51;99618.22;4989060;28;20045;-85
2023/09/03 00:30:44;;;;;;;18.60;15.25;;;;;;;15.19;90.06;99614.78;4996407;28;20034;-85
2023/09/03 00:33:09;;;;;;;20.98;16.33;;;;;;;15.20;90.67;99629.06;4975757;28;20418;-84
2023/09/03 00:35:34;;;;;;;17.95;15.18;;;;;;;14.94;93.34;99631.56;4974550;28;20034;-85
2023/09/03 00:38:00;;;;;;;17.83;14.90;;;;;;;14.93;92.90;99627.25;4961484;28;20038;-84
2023/09/03 00:40:25;;;;;;;19.63;14.18;;;;;;;14.88;90.92;99608.41;4972331;28;20026;-85
2023/09/03 00:42:51;;;;;;;8.43;7.18;;;;;;;15.46;87.52;99625.47;4995240;28;20069;-84
2023/09/03 00:45:16;;;;;;;9.88;6.85;;;;;;;15.96;85.02;99641.06;4960441;28;20025;-85
2023/09/03 00:47:42;;;;;;;11.13;7.25;;;;;;;16.39;82.58;99630.66;4999138;28;20041;-85
2023/09/03 00:50:09;;;;;;;9.63;7.35;;;;;;;16.51;81.93;99627.75;4972999;28;20030;-85
2023/09/03 00:52:35;;;;;;;8.35;6.72;;;;;;;16.55;81.80;99636.94;4964234;28;20465;-84
2023/09/03 00:55:01;;;;;;;11.50;7.60;;;;;;;16.44;81.86;99619.91;4993648;28;20037;-85
2023/09/03 00:57:27;;;;;;;9.77;6.93;;;;;;;16.60;81.56;99631.50;4958668;28;20393;-85
2023/09/03 00:59:53;;;;;;;9.55;6.40;;;;;;;16.57;81.90;99628.56;4994251;28;20045;-85
2023/09/03 01:02:19;;;;;;;9.27;7.10;;;;;;;16.57;81.87;99629.38;4988085;28;20100;-85
2023/09/03 01:04:45;;;;;;;8.73;7.53;;;;;;;16.43;81.98;99615.56;4996506;28;20116;-85
2023/09/03 01:07:13;;;;;;;8.60;7.30;;;;;;;16.47;81.79;99637.41;5009514;28;20061;-85
2023/09/03 01:09:40;;;;;;;7.55;6.68;;;;;;;16.28;82.07;99612.84;4968452;28;20025;-85
2023/09/03 01:12:19;;;;;;;9.52;7.00;;;;;;;16.52;80.91;99628.53;4990819;28;20033;-86
2023/09/03 01:15:07;;;;;;;7.97;6.88;;;;;;;16.41;81.51;99644.69;5000781;28;20470;-84
2023/09/03 01:17:48;;;;;;;10.68;9.07;;;;;;;16.15;82.43;99647.56;4993813;28;20030;-84
2023/09/03 01:20:50;;;;;;;7.60;6.43;;;;;;;16.33;81.85;99665.94;5000107;28;20037;-85
2023/09/03 01:23:34;;;;;;;10.68;7.43;;;;;;;16.38;81.66;99666.75;4983730;28;20049;-85
2023/09/03 01:26:18;;;;;;;13.35;7.38;;;;;;;16.19;82.99;99664.81;4999629;28;20030;-85
2023/09/03 01:28:45;;;;;;;9.52;6.82;;;;;;;16.20;82.66;99653.78;4999342;28;20335;-85
2023/09/03 01:31:13;;;;;;;8.52;6.55;;;;;;;16.32;81.56;99665.13;4976691;28;20049;-85
2023/09/03 01:33:41;;;;;;;7.40;6.63;;;;;;;16.27;81.43;99678.56;4980933;28;20088;-85
2023/09/03 01:36:09;;;;;;;9.43;7.10;;;;;;;16.21;81.80;99685.03;4978609;28;20450;-85
2023/09/03 01:38:35;;;;;;;13.80;6.88;;;;;;;16.18;81.50;99677.50;4977455;28;20030;-85
2023/09/03 01:41:01;;;;;;;11.30;6.72;;;;;;;16.38;81.00;99682.91;4987178;28;20132;-85
2023/09/03 01:43:26;;;;;;;10.15;6.47;;;;;;;16.24;81.32;99687.22;4999615;28;20030;-85
2023/09/03 01:46:09;;;;;;;6.72;6.10;;;;;;;16.39;80.75;99695.34;4985238;28;20032;-85
2023/09/03 01:48:46;;;;;;;6.97;6.10;;;;;;;16.28;81.45;99687.47;4997670;28;20386;-85
2023/09/03 01:51:21;;;;;;;6.88;6.18;;;;;;;16.33;80.59;99671.34;4989242;28;20034;-84
2023/09/03 01:54:02;;;;;;;12.10;8.10;;;;;;;16.32;80.58;99665.13;4996402;28;20109;-85
2023/09/03 01:56:31;;;;;;;7.82;6.30;;;;;;;16.33;80.74;99674.03;4986686;28;20042;-85
2023/09/03 01:59:11;;;;;;;8.30;6.35;;;;;;;16.05;81.16;99652.94;4980058;28;20052;-84
2023/09/03 02:01:38;;;;;;;9.93;6.80;;;;;;;15.89;81.59;99641.28;5008335;28;20057;-85
2023/09/03 02:04:03;;;;;;;8.80;7.13;;;;;;;15.75;82.23;99667.06;5003243;28;20029;-84
2023/09/03 02:06:29;;;;;;;11.07;7.88;;;;;;;16.00;81.87;99675.25;4977047;28;20026;-84
2023/09/03 02:08:54;;;;;;;10.77;7.43;;;;;;;16.09;80.96;99657.53;4974959;28;20705;-84
2023/09/03 02:11:20;;;;;;;8.95;7.47;;;;;;;16.22;80.51;99675.88;4988830;28;20030;-86
2023/09/03 02:13:45;;;;;;;7.88;6.68;;;;;;;16.00;81.17;99664.50;4989340;28;20086;-85
2023/09/03 02:16:10;;;;;;;9.63;7.43;;;;;;;15.95;81.80;99669.03;4976303;28;20077;-85
2023/09/03 02:18:36;;;;;;;7.30;6.60;;;;;;;15.74;82.18;99658.19;4973032;28;20034;-85
2023/09/03 02:21:01;;;;;;;10.98;7.20;;;;;;;15.80;81.67;99664.41;4990457;28;20049;-85
2023/09/03 02:23:26;;;;;;;11.32;7.20;;;;;;;15.67;82.31;99673.75;4975829;28;20030;-85
2023/09/03 02:26:02;;;;;;;9.32;7.38;;;;;;;15.57;82.71;99697.13;4973310;28;20034;-84
2023/09/03 02:28:28;;;;;;;7.80;7.10;;;;;;;15.72;82.35;99700.72;4987303;28;20739;-85
2023/09/03 02:30:54;;;;;;;9.23;6.97;;;;;;;15.45;83.06;99700.00;4990674;28;20567;-85
2023/09/03 02:33:19;;;;;;;11.20;7.70;;;;;;;15.61;83.24;99719.75;4977476;28;20154;-85
2023/09/03 02:35:44;;;;;;;10.57;7.13;;;;;;;16.07;81.31;99697.38;5008900;28;20129;-86
2023/09/03 02:38:10;;;;;;;12.13;6.75;;;;;;;16.08;80.65;99690.09;4960677;28;20034;-85
2023/09/03 02:40:37;;;;;;;9.95;6.70;;;;;;;15.96;81.22;99684.13;4959495;28;20120;-86
2023/09/03 02:43:04;;;;;;;8.52;7.18;;;;;;;15.78;81.74;99669.25;4976585;28;20033;-85
2023/09/03 02:45:29;;;;;;;10.38;7.40;;;;;;;15.81;81.98;99682.19;4990229;28;20124;-85
2023/09/03 02:47:55;;;;;;;9.00;7.47;;;;;;;15.98;81.86;99690.06;4991529;28;20037;-85
2023/09/03 02:50:20;;;;;;;11.07;7.43;;;;;;;15.85;81.71;99688.66;4973678;28;20034;-85
2023/09/03 02:52:46;;;;;;;8.05;7.25;;;;;;;15.99;81.20;99670.94;4991360;28;20036;-85
2023/09/03 02:55:12;;;;;;;9.52;8.25;;;;;;;15.77;81.71;99657.66;4991006;28;20061;-85
2023/09/03 02:57:38;;;;;;;13.48;9.48;;;;;;;15.70;82.50;99643.63;4958881;28;20038;-85
2023/09/03 03:00:04;;;;;;;8.48;7.55;;;;;;;15.68;82.56;99653.06;4980751;28;20038;-85
2023/09/03 03:02:29;;;;;;;9.25;8.20;;;;;;;15.78;82.22;99634.25;4973078;28;20528;-86
2023/09/03 03:04:55;;;;;;;12.00;8.63;;;;;;;15.66;82.76;99639.06;4973684;28;20091;-86
2023/09/03 03:07:20;;;;;;;16.27;9.82;;;;;;;15.52;82.75;99635.19;4988021;28;20034;-85
2023/09/03 03:09:49;;;;;;;11.30;8.88;;;;;;;15.79;82.46;99652.03;5008221;28;20120;-85
2023/09/03 03:12:14;;;;;;;13.68;9.50;;;;;;;15.82;82.01;99640.72;4986873;28;20029;-85
2023/09/03 03:14:40;;;;;;;13.95;9.27;;;;;;;15.44;82.99;99616.88;4961850;28;20489;-85
2023/09/03 03:17:06;;;;;;;10.90;8.88;;;;;;;15.52;82.86;99643.25;4978733;28;20080;-85
2023/09/03 03:19:32;;;;;;;14.15;9.23;;;;;;;15.62;83.14;99637.94;4989646;28;20041;-84
2023/09/03 03:21:57;;;;;;;10.10;8.57;;;;;;;15.44;83.46;99639.19;4988365;28;20030;-85
2023/09/03 03:24:22;;;;;;;11.70;8.75;;;;;;;15.42;83.21;99649.34;4971980;28;20113;-85
2023/09/03 03:26:48;;;;;;;9.07;8.10;;;;;;;15.44;83.02;99654.53;4973278;28;20109;-84
2023/09/03 03:29:13;;;;;;;12.52;8.73;;;;;;;15.62;83.12;99672.91;4954871;28;20041;-85
2023/09/03 03:31:42;;;;;;;17.25;13.05;;;;;;;15.56;82.34;99668.59;4986238;28;20372;-85
2023/09/03 03:34:07;;;;;;;9.30;7.60;;;;;;;15.53;82.06;99647.59;4986484;28;20027;-85
2023/09/03 03:36:33;;;;;;;9.80;8.23;;;;;;;15.73;81.84;99667.34;4975390;28;20061;-85
2023/09/03 03:38:58;;;;;;;12.55;8.80;;;;;;;15.44;82.21;99655.31;4983344;28;20026;-84
2023/09/03 03:41:24;;;;;;;17.95;12.80;;;;;;;15.24;83.61;99655.19;4989540;28;20374;-85
2023/09/03 03:43:50;;;;;;;10.25;7.90;;;;;;;15.35;83.42;99669.50;4989769;28;20545;-84
2023/09/03 03:46:18;;;;;;;11.27;7.82;;;;;;;15.75;81.81;99688.59;4974533;28;20064;-85
2023/09/03 03:48:44;;;;;;;9.40;7.68;;;;;;;15.70;81.95;99684.00;4988746;28;20073;-86
2023/09/03 03:51:10;;;;;;;10.35;7.45;;;;;;;15.83;81.58;99671.97;4986758;28;20026;-85
2023/09/03 03:53:36;;;;;;;8.10;7.30;;;;;;;16.01;80.47;99665.31;5001817;28;20083;-85
2023/09/03 03:56:08;;;;;;;10.88;7.40;;;;;;;15.97;80.53;99651.53;4996312;28;20675;-85
2023/09/03 03:58:36;;;;;;;12.20;7.32;;;;;;;15.75;81.18;99645.53;4984703;28;20029;-85
2023/09/03 04:01:14;;;;;;;9.80;7.70;;;;;;;15.83;80.95;99666.59;4977122;28;20489;-84
2023/09/03 04:03:39;;;;;;;11.18;8.68;;;;;;;15.77;81.29;99668.44;4989158;28;20026;-84
2023/09/03 04:06:05;;;;;;;10.35;7.30;;;;;;;15.67;81.55;99664.88;5003678;28;20444;-84
2023/09/03 04:08:32;;;;;;;12.50;9.15;;;;;;;15.79;81.05;99665.50;4969388;28;20037;-84
2023/09/03 04:11:02;;;;;;;15.95;11.70;;;;;;;15.43;81.76;99683.31;4973671;28;20076;-85
2023/09/03 04:13:29;;;;;;;13.68;12.23;;;;;;;15.27;82.95;99691.47;4988627;28;20040;-85
2023/09/03 04:15:55;;;;;;;25.45;15.95;;;;;;;14.38;86.28;99680.47;5004336;28;20026;-85
2023/09/03 04:18:25;;;;;;;9.52;8.57;;;;;;;14.30;85.16;99643.34;4973114;28;20477;-85
2023/09/03 04:20:54;;;;;;;7.82;7.03;;;;;;;15.13;83.73;99695.69;5003787;28;20034;-84
2023/09/03 04:23:20;;;;;;;14.38;12.88;;;;;;;14.97;83.71;99711.69;5004099;28;20028;-85
2023/09/03 04:25:45;;;;;;;8.27;7.43;;;;;;;14.86;84.62;99707.31;4984623;28;20026;-85
2023/09/03 04:28:11;;;;;;;10.88;8.98;;;;;;;15.30;82.61;99707.94;4973478;28;20422;-84
2023/09/03 04:30:37;;;;;;;12.13;8.82;;;;;;;15.44;81.73;99738.72;4990180;28;20044;-85
2023/09/03 04:33:04;;;;;;;8.73;7.63;;;;;;;15.50;81.63;99736.91;4990895;28;20045;-85
2023/09/03 04:35:30;;;;;;;11.35;8.15;;;;;;;15.66;81.08;99746.69;4991050;28;20026;-85
2023/09/03 04:37:55;;;;;;;12.10;7.97;;;;;;;15.51;80.72;99722.34;5006981;28;20030;-85
2023/09/03 04:40:21;;;;;;;10.02;8.13;;;;;;;15.49;80.88;99733.38;4978601;28;20049;-84
2023/09/03 04:42:46;;;;;;;8.93;8.00;;;;;;;15.66;80.19;99755.56;4987571;28;20491;-84
2023/09/03 04:45:11;;;;;;;9.63;8.43;;;;;;;15.43;80.93;99734.44;4974531;28;20510;-84
2023/09/03 04:47:37;;;;;;;9.40;8.13;;;;;;;15.34;81.42;99762.00;5002099;28;20022;-85
2023/09/03 04:50:02;;;;;;;10.27;7.40;;;;;;;15.27;81.27;99748.78;5004086;28;20026;-84
2023/09/03 04:52:28;;;;;;;9.80;7.82;;;;;;;15.22;81.80;99753.31;4988428;28;20026;-84
2023/09/03 04:54:53;;;;;;;11.52;7.80;;;;;;;15.32;81.43;99758.78;4973572;28;20052;-85
2023/09/03 04:57:20;;;;;;;9.82;8.27;;;;;;;15.46;80.62;99755.44;4984959;28;20034;-85
2023/09/03 04:59:45;;;;;;;12.43;8.98;;;;;;;15.60;80.26;99763.88;4996015;28;20033;-84
2023/09/03 05:02:11;;;;;;;8.93;7.18;;;;;;;15.40;81.37;99755.59;4975014;28;21410;-85
2023/09/03 05:04:36;;;;;;;16.02;14.07;;;;;;;15.00;82.05;99758.78;4958497;28;20121;-85
2023/09/03 05:07:02;;;;;;;10.93;7.65;;;;;;;14.96;82.53;99738.84;4997838;28;20045;-85
2023/09/03 05:09:28;;;;;;;11.40;8.60;;;;;;;15.20;82.74;99766.22;4992539;28;20033;-85
2023/09/03 05:11:53;;;;;;;11.02;8.90;;;;;;;15.17;83.20;99770.22;4974314;28;20800;-84
2023/09/03 05:14:19;;;;;;;9.52;7.68;;;;;;;15.02;83.26;99733.28;4988004;28;20033;-85
2023/09/03 05:16:44;;;;;;;8.15;7.35;;;;;;;15.16;83.47;99759.72;4971218;28;20859;-85
2023/09/03 05:19:14;;;;;;;10.40;7.72;;;;;;;15.06;83.95;99760.44;4989394;28;21973;-85
2023/09/03 05:21:40;;;;;;;17.58;14.65;;;;;;;14.77;84.82;99769.81;4972678;28;20508;-84
2023/09/03 05:24:06;;;;;;;8.80;7.65;;;;;;;14.92;84.47;99780.72;4971436;28;20065;-85
2023/09/03 05:26:31;;;;;;;7.88;6.68;;;;;;;15.17;83.85;99790.91;4993007;28;20018;-85
2023/09/03 05:28:57;;;;;;;17.95;12.85;;;;;;;14.76;83.57;99750.22;5009184;28;20488;-84
2023/09/03 05:31:22;;;;;;;14.77;11.43;;;;;;;14.88;83.68;99761.63;4987034;28;20029;-85
2023/09/03 05:33:48;;;;;;;9.48;6.97;;;;;;;15.32;82.47;99772.22;4974693;28;20112;-85
2023/09/03 05:36:13;;;;;;;9.02;7.15;;;;;;;15.42;82.49;99791.94;4976269;28;20026;-85
2023/09/03 05:38:42;;;;;;;7.72;6.63;;;;;;;15.55;82.25;99812.28;4976270;28;20026;-85
2023/09/03 05:41:11;;;;;;;17.35;7.43;;;;;;;15.39;82.47;99789.78;4979736;28;20033;-85
2023/09/03 05:43:37;;;;;;;8.57;7.07;;;;;;;15.28;82.99;99796.16;4960528;28;20125;-85
2023/09/03 05:46:04;;;;;;;7.13;6.20;;;;;;;15.19;82.98;99794.16;4962260;28;20033;-85
2023/09/03 05:48:29;;;;;;;13.23;7.15;;;;;;;15.29;82.44;99805.03;4988447;28;20121;-85
2023/09/03 05:51:04;;;;;;;7.88;6.55;;;;;;;15.30;82.23;99812.03;4983537;28;20030;-85
2023/09/03 05:53:31;;;;;;;10.40;7.72;;;;;;;15.15;83.76;99833.41;5000115;28;20049;-85
2023/09/03 05:56:06;;;;;;;7.72;6.22;;;;;;;15.46;82.46;99821.91;4986589;28;20088;-85
2023/09/03 05:58:33;;;;;;;8.60;6.70;;;;;;;15.26;82.85;99832.44;4971540;28;20034;-85
2023/09/03 06:00:58;;;;;;;14.43;9.77;;;;;;;15.15;84.03;99834.22;4994322;28;20064;-85
2023/09/03 06:03:24;;;;;;;14.68;11.57;;;;;;;14.93;85.38;99839.63;4972680;28;20091;-85
2023/09/03 06:05:49;;;;;;;7.95;6.90;;;;;;;15.16;84.33;99845.78;4986432;28;20080;-85
2023/09/03 06:08:14;;;;;;;6.88;6.10;;;;;;;15.34;83.37;99837.34;4973324;28;20026;-85
2023/09/03 06:10:41;;;;;;;8.15;5.97;;;;;;;15.45;83.54;99857.91;4956324;28;20026;-85
2023/09/03 06:13:06;;;;;;;6.85;6.25;;;;;;;15.40;83.63;99863.22;4984387;28;20034;-84
2023/09/03 06:15:32;;;;;;;6.85;6.15;;;;;;;15.26;83.50;99848.56;4968166;28;20080;-85
2023/09/03 06:17:57;;;;;;;7.85;6.43;;;;;;;15.35;83.89;99855.13;4974115;28;20030;-84
2023/09/03 06:20:23;;;;;;;14.77;10.82;;;;;;;15.30;84.08;99857.75;4969001;28;20058;-85
2023/09/03 06:22:48;;;;;;;21.58;13.95;;;;;;;14.93;87.78;99860.31;4969953;28;20048;-85
2023/09/03 06:25:13;;;;;;;9.98;7.38;;;;;;;15.14;85.89;99864.03;4957457;28;20025;-85
2023/09/03 06:27:39;;;;;;;15.23;11.40;;;;;;;15.13;85.89;99860.56;4983638;28;20042;-85
2023/09/03 06:30:05;;;;;;;8.00;6.65;;;;;;;15.38;84.25;99857.28;4946181;28;20101;-84
2023/09/03 06:32:30;;;;;;;14.43;12.35;;;;;;;15.23;87.08;99884.03;4984346;28;20041;-84
2023/09/03 06:34:56;;;;;;;18.42;13.80;;;;;;;14.89;90.09;99878.84;4989900;28;20026;-84
2023/09/03 06:37:21;;;;;;;16.77;12.63;;;;;;;14.60;91.61;99869.34;4986321;28;20410;-84
2023/09/03 06:39:47;;;;;;;11.40;9.98;;;;;;;14.75;89.55;99860.63;4989972;28;20076;-83
2023/09/03 06:42:12;;;;;;;18.08;11.57;;;;;;;14.57;91.32;99875.19;4973397;28;20123;-83
2023/09/03 06:44:38;;;;;;;12.52;7.72;;;;;;;14.95;88.22;99880.53;4990889;28;20038;-84
2023/09/03 06:47:03;;;;;;;12.48;7.68;;;;;;;14.97;88.59;99870.31;5004166;28;20053;-84
2023/09/03 06:49:29;;;;;;;12.75;9.80;;;;;;;15.01;89.93;99897.50;4992380;28;20033;-85
2023/09/03 06:51:54;;;;;;;14.70;10.27;;;;;;;14.71;91.33;99902.50;4957355;28;20029;-85
2023/09/03 06:54:19;;;;;;;8.05;6.63;;;;;;;15.26;87.12;99907.75;4958376;28;20070;-85
2023/09/03 06:56:45;;;;;;;11.30;9.88;;;;;;;14.76;91.59;99911.47;4973081;28;20042;-84
2023/09/03 06:59:10;;;;;;;17.77;12.20;;;;;;;14.61;93.18;99913.94;4990209;28;20038;-84
2023/09/03 07:01:36;;;;;;;14.93;11.95;;;;;;;14.57;93.35;99901.28;4969438;28;20073;-83
2023/09/03 07:04:01;;;;;;;21.83;12.98;;;;;;;14.64;93.52;99910.75;4974841;28;20431;-85
2023/09/03 07:06:26;;;;;;;16.83;12.45;;;;;;;14.40;93.65;99906.66;4992524;28;20025;-85
2023/09/03 07:08:53;;;;;;;19.98;13.00;;;;;;;14.35;92.98;99901.22;4976260;28;20487;-84
2023/09/03 07:11:18;;;;;;;14.18;9.88;;;;;;;14.92;91.85;99924.03;4993277;28;20041;-84
2023/09/03 07:13:44;;;;;;;16.10;12.05;;;;;;;14.66;92.44;99911.31;4989430;28;20026;-84
2023/09/03 07:16:09;;;;;;;20.20;13.13;;;;;;;14.53;92.61;99930.50;4977081;28;20038;-84
2023/09/03 07:18:35;;;;;;;18.77;12.25;;;;;;;14.38;92.68;99914.16;5011582;28;20022;-84
2023/09/03 07:21:05;;;;;;;18.30;12.13;;;;;;;14.53;93.15;99922.44;4995865;28;20029;-84
2023/09/03 07:23:30;;;;;;;14.10;9.63;;;;;;;14.66;91.92;99940.06;5009229;28;20418;-84
2023/09/03 07:26:08;;;;;;;19.98;8.40;;;;;;;14.77;92.37;99939.97;4994352;28;20036;-83
2023/09/03 07:28:33;;;;;;;17.08;8.45;;;;;;;14.56;91.43;99932.69;4989135;28;20045;-83
2023/09/03 07:30:59;;;;;;;11.80;8.30;;;;;;;15.12;90.53;99944.16;4990307;28;20041;-84
2023/09/03 07:33:25;;;;;;;14.60;7.85;;;;;;;15.07;90.03;99949.47;5009591;28;20034;-84
2023/09/03 07:35:50;;;;;;;11.43;9.30;;;;;;;14.69;91.01;99924.28;5012717;28;20117;-85
2023/09/03 07:38:15;;;;;;;15.95;8.43;;;;;;;14.77;91.42;99917.63;4987813;28;20117;-85
2023/09/03 07:40:41;;;;;;;11.50;8.25;;;;;;;14.64;90.70;99924.19;4987649;28;20041;-85
2023/09/03 07:43:06;;;;;;;12.90;7.97;;;;;;;14.83;90.88;99927.41;4979680;28;20022;-84
2023/09/03 07:45:31;;;;;;;10.73;7.03;;;;;;;14.96;90.25;99922.47;4994920;28;20285;-84
2023/09/03 07:47:57;;;;;;;13.15;7.20;;;;;;;15.19;90.13;99931.31;4982168;28;21824;-83
2023/09/03 07:50:22;;;;;;;14.75;7.63;;;;;;;15.06;88.68;99942.47;4994215;28;20469;-84
2023/09/03 07:52:48;;;;;;;8.57;7.57;;;;;;;14.98;89.74;99951.81;4991105;28;20485;-84
2023/09/03 07:55:13;;;;;;;9.18;6.18;;;;;;;15.35;89.25;99941.19;5004534;28;20089;-84
2023/09/03 07:57:39;;;;;;;13.13;7.25;;;;;;;15.46;88.21;99946.47;4958606;28;20037;-84
2023/09/03 08:00:05;;;;;;;9.77;6.25;;;;;;;15.55;88.49;99944.16;4973246;28;20034;-84
2023/09/03 08:02:30;;;;;;;8.65;6.25;;;;;;;15.64;88.28;99961.44;4998418;28;20473;-84
2023/09/03 08:04:56;;;;;;;8.20;6.07;;;;;;;15.27;87.43;99955.06;4998159;28;20179;-83
2023/09/03 08:07:21;;;;;;;6.78;5.40;;;;;;;15.58;87.82;99957.91;4994582;28;20409;-84
2023/09/03 08:09:46;;;;;;;19.23;5.72;;;;;;;15.57;85.69;99955.47;4988630;28;20390;-84
2023/09/03 08:12:12;;;;;;;9.73;5.57;;;;;;;15.60;86.25;99971.91;4993727;28;20037;-84
2023/09/03 08:14:38;;;;;;;13.88;6.47;;;;;;;16.30;84.91;99974.44;4996721;28;20032;-84
2023/09/03 08:17:05;;;;;;;7.97;5.15;;;;;;;16.14;85.85;99971.88;4964457;28;20046;-84
2023/09/03 08:19:30;;;;;;;9.95;6.18;;;;;;;16.20;84.93;99977.06;4992479;28;20042;-84
2023/09/03 08:21:56;;;;;;;8.18;5.05;;;;;;;16.68;83.10;99977.94;5000490;28;20549;-84
2023/09/03 08:24:21;;;;;;;7.20;4.95;;;;;;;16.63;83.28;99967.13;4977532;28;20117;-84
2023/09/03 08:26:50;;;;;;;6.53;4.50;;;;;;;16.21;82.10;99983.22;4998351;28;20034;-84
2023/09/03 08:29:15;;;;;;;6.22;4.45;;;;;;;16.50;82.22;99979.19;4986043;28;20033;-84
2023/09/03 08:31:41;;;;;;;9.95;5.13;;;;;;;16.37;80.86;99982.28;4976181;28;20425;-84
2023/09/03 08:34:06;;;;;;;7.93;5.25;;;;;;;16.52;81.63;99965.44;4954005;28;20059;-84
2023/09/03 08:36:32;;;;;;;8.00;6.15;;;;;;;16.22;79.30;99969.53;4995551;28;20036;-84
2023/09/03 08:38:58;;;;;;;7.20;4.80;;;;;;;16.71;79.12;99991.72;4971126;28;20025;-84
2023/09/03 08:41:23;;;;;;;10.38;5.03;;;;;;;16.85;79.97;99989.38;4972320;28;20032;-84
2023/09/03 08:43:54;;;;;;;7.18;5.20;;;;;;;16.79;78.94;99995.81;4993338;28;20033;-84
2023/09/03 08:46:24;;;;;;;6.68;4.70;;;;;;;16.95;79.30;99979.44;4970840;28;20034;-84
2023/09/03 08:48:49;;;;;;;5.00;4.32;;;;;;;17.32;79.55;99990.13;4985155;28;20030;-84
2023/09/03 08:51:15;;;;;;;11.35;4.20;;;;;;;17.29;77.66;99982.59;4969910;28;20048;-84
2023/09/03 08:53:43;;;;;;;6.63;4.80;;;;;;;17.15;77.30;99990.34;4998125;28;20025;-83
2023/09/03 08:56:09;;;;;;;8.38;4.03;;;;;;;17.14;80.91;99983.34;4972778;28;20681;-84
2023/09/03 08:58:34;;;;;;;7.75;5.55;;;;;;;17.30;77.92;99980.69;4970783;28;20085;-84
2023/09/03 09:01:00;;;;;;;9.80;4.32;;;;;;;17.30;77.99;99976.09;4984533;28;20041;-84
2023/09/03 09:03:28;;;;;;;8.00;5.20;;;;;;;17.22;77.34;99965.81;4970741;28;20053;-84
2023/09/03 09:05:54;;;;;;;9.25;5.70;;;;;;;16.96;77.72;99980.28;4986516;28;20032;-84
2023/09/03 09:08:22;;;;;;;7.68;5.25;;;;;;;16.75;76.48;99981.25;4982124;28;20030;-84
2023/09/03 09:10:51;;;;;;;7.47;4.60;;;;;;;17.17;76.59;99982.78;4990329;28;20045;-83
2023/09/03 09:13:21;;;;;;;4.68;4.10;;;;;;;17.56;78.04;99994.03;5003307;28;20029;-84
2023/09/03 09:15:46;;;;;;;7.22;5.00;;;;;;;17.08;76.14;99987.06;4988999;28;20049;-84
2023/09/03 09:18:12;;;;;;;5.03;4.25;;;;;;;17.30;77.45;99992.28;4984137;28;20618;-84
2023/09/03 09:20:38;;;;;;;6.82;5.18;;;;;;;17.03;76.43;99992.47;4998752;28;20470;-84
2023/09/03 09:23:05;;;;;;;8.15;4.28;;;;;;;17.49;75.46;99984.53;5002001;28;20026;-84
2023/09/03 09:25:30;;;;;;;8.13;4.05;;;;;;;17.51;76.06;99969.72;5006593;28;20053;-84
2023/09/03 09:27:57;;;;;;;6.95;3.65;;;;;;;17.27;74.36;99990.13;4985557;28;20061;-84
2023/09/03 09:30:26;;;;;;;5.93;3.75;;;;;;;17.47;75.37;100000.19;4984014;28;20036;-83
2023/09/03 09:33:08;;;;;;;5.03;4.53;;;;;;;17.20;73.45;100001.16;5001118;28;20034;-83
2023/09/03 09:35:34;;;;;;;6.78;4.05;;;;;;;17.24;75.52;99996.03;4986608;28;20030;-83
2023/09/03 09:38:07;;;;;;;6.30;4.53;;;;;;;17.36;74.43;100001.22;4996745;28;20144;-84
2023/09/03 09:40:35;;;;;;;4.82;3.08;;;;;;;17.22;72.13;99987.41;5006728;28;20021;-84
2023/09/03 09:43:03;;;;;;;4.82;3.10;;;;;;;17.39;72.75;99984.47;4994295;28;20036;-84
2023/09/03 09:45:30;;;;;;;4.75;3.28;;;;;;;17.49;72.59;99992.63;4972675;28;20096;-84
2023/09/03 09:48:07;;;;;;;5.72;3.38;;;;;;;16.85;73.37;99984.81;4990247;28;20539;-83
2023/09/03 09:50:34;;;;;;;3.45;3.15;;;;;;;17.19;70.98;99996.84;5005781;28;20026;-84
2023/09/03 09:53:00;;;;;;;4.10;2.60;;;;;;;17.12;70.12;99990.06;5004533;28;20054;-84
2023/09/03 09:55:29;;;;;;;3.47;3.05;;;;;;;17.41;73.73;99985.84;5009280;28;20037;-84
2023/09/03 09:57:55;;;;;;;4.90;3.90;;;;;;;17.81;73.66;99972.50;4990408;28;20509;-84
2023/09/03 10:00:41;;;;;;;4.72;2.78;;;;;;;18.47;71.35;99991.47;4978548;28;20025;-84
2023/09/03 10:03:10;;;;;;;6.40;3.10;;;;;;;18.92;74.88;99988.66;4984826;28;20491;-85
2023/09/03 10:05:37;;;;;;;4.70;3.25;;;;;;;19.31;73.04;99970.66;4971958;28;20397;-85
2023/09/03 10:08:03;;;;;;;6.03;2.75;;;;;;;18.88;69.88;99963.25;4991916;28;20026;-84
2023/09/03 10:10:29;;;;;;;5.63;3.08;;;;;;;19.01;71.49;99970.78;4969005;28;20030;-83
2023/09/03 10:12:55;;;;;;;4.80;2.88;;;;;;;19.29;69.79;99999.91;4991442;28;20042;-84
2023/09/03 10:15:21;;;;;;;5.20;3.13;;;;;;;18.31;67.63;100003.31;4991184;28;20030;-84
2023/09/03 10:17:52;;;;;;;5.43;2.88;;;;;;;18.31;68.33;100003.31;4986800;28;20075;-84
2023/09/03 10:20:19;;;;;;;37.88;4.82;;;;;;;18.52;70.89;99991.47;5006263;28;20124;-83
2023/09/03 10:22:49;;;;;;;5.28;3.75;;;;;;;18.73;69.76;99995.75;4990545;28;20042;-84
2023/09/03 10:25:21;;;;;;;4.20;2.97;;;;;;;18.21;69.04;99969.00;4975941;28;20026;-84
2023/09/03 10:27:52;;;;;;;5.72;3.67;;;;;;;19.32;73.23;99961.44;4988030;28;20116;-84
2023/09/03 10:30:25;;;;;;;3.33;2.60;;;;;;;19.84;71.37;99966.31;4992264;28;20115;-84
2023/09/03 10:32:53;;;;;;;4.20;3.22;;;;;;;19.16;66.71;99973.41;4984920;28;20025;-84
2023/09/03 10:35:18;;;;;;;4.88;2.40;;;;;;;18.93;70.60;99967.84;4991430;28;20521;-84
2023/09/03 10:37:44;;;;;;;3.25;2.80;;;;;;;19.97;69.23;99978.41;5003008;28;20141;-84
2023/09/03 10:40:20;;;;;;;2.88;2.67;;;;;;;19.94;69.19;99979.00;4985455;28;20116;-84
2023/09/03 10:42:51;;;;;;;2.70;2.45;;;;;;;19.55;66.60;99978.16;5008102;28;20033;-84
2023/09/03 10:45:18;;;;;;;5.68;3.15;;;;;;;19.35;68.56;99984.50;5010544;28;20034;-84
2023/09/03 10:47:59;;;;;;;4.65;2.67;;;;;;;19.04;67.79;99989.19;5000184;28;20132;-83
2023/09/03 10:50:50;;;;;;;5.72;3.28;;;;;;;18.60;67.39;99988.19;5008171;28;20045;-83
2023/09/03 10:53:39;;;;;;;3.65;2.78;;;;;;;19.25;66.77;99979.88;4990134;28;20088;-83
2023/09/03 10:56:11;;;;;;;3.13;2.40;;;;;;;20.30;69.20;99971.41;4998970;28;20485;-82
2023/09/03 10:58:58;;;;;;;2.83;2.55;;;;;;;20.54;68.53;99970.38;5005477;28;21930;-83
2023/09/03 11:01:34;;;;;;;3.55;2.83;;;;;;;20.72;66.29;99966.94;5005152;28;20030;-84
2023/09/03 11:04:02;;;;;;;3.08;2.30;;;;;;;20.32;64.01;99986.31;4993843;28;20045;-84
2023/09/03 11:06:33;;;;;;;9.30;2.78;;;;;;;20.54;63.40;99988.53;5005296;28;20032;-83
2023/09/03 11:09:02;;;;;;;3.88;2.63;;;;;;;21.00;66.56;99984.28;5008267;28;20100;-84
2023/09/03 11:11:33;;;;;;;4.30;2.80;;;;;;;21.15;61.24;99986.03;5009552;28;20025;-84
2023/09/03 11:14:02;;;;;;;4.90;2.33;;;;;;;20.53;59.98;99997.78;5000474;28;20026;-84
2023/09/03 11:16:39;;;;;;;3.03;2.45;;;;;;;19.87;60.75;99984.72;5003407;28;20034;-84
2023/09/03 11:19:08;;;;;;;3.47;2.13;;;;;;;20.64;60.97;99999.31;4985639;28;20121;-84
2023/09/03 11:21:37;;;;;;;5.00;2.45;;;;;;;20.47;64.34;99997.00;5011050;28;20033;-84
2023/09/03 11:24:04;;;;;;;4.72;2.83;;;;;;;20.82;64.73;99988.53;4999421;28;20036;-84
2023/09/03 11:26:31;;;;;;;2.35;2.10;;;;;;;20.84;63.18;99986.34;4982605;28;20117;-84
2023/09/03 11:28:58;;;;;;;4.97;1.92;;;;;;;21.33;64.67;99987.97;4989158;28;20033;-85
2023/09/03 11:31:27;;;;;;;4.18;2.35;;;;;;;21.44;64.31;99984.84;4973498;28;20547;-85